createdAt,value
2023-07-25T00:00:34.092Z,65.40
2023-07-25T00:03:02.349Z,65.40
2023-07-25T00:05:30.563Z,65.40
2023-07-25T00:07:58.737Z,65.50
2023-07-25T00:10:26.943Z,65.50
2023-07-25T00:12:56.280Z,65.40
2023-07-25T00:15:25.960Z,65.50
2023-07-25T00:17:54.174Z,65.50
2023-07-25T00:20:22.408Z,65.50
2023-07-25T00:22:50.764Z,65.50
2023-07-25T00:25:19.936Z,65.50
2023-07-25T00:27:48.191Z,65.50
2023-07-25T00:30:16.493Z,65.50
2023-07-25T00:32:45.997Z,65.50
2023-07-25T00:35:14.265Z,65.50
2023-07-25T00:37:42.421Z,65.50
2023-07-25T00:40:11.391Z,65.40
2023-07-25T00:42:39.608Z,65.40
2023-07-25T00:45:09.475Z,65.40
2023-07-25T00:47:40.326Z,65.40
2023-07-25T00:50:11.313Z,65.40
2023-07-25T00:52:39.804Z,65.40
2023-07-25T00:55:09.559Z,65.40
2023-07-25T00:57:37.803Z,65.40
2023-07-25T01:00:11.483Z,65.50
2023-07-25T01:02:39.781Z,65.50
2023-07-25T01:05:09.746Z,65.40
2023-07-25T01:07:39.840Z,65.40
2023-07-25T01:10:09.168Z,65.40
2023-07-25T01:12:37.337Z,65.40
2023-07-25T01:15:06.287Z,65.40
2023-07-25T01:17:35.144Z,65.40
2023-07-25T01:20:03.794Z,65.40
2023-07-25T01:22:35.986Z,65.40
2023-07-25T01:25:06.065Z,65.50
2023-07-25T01:27:34.282Z,65.40
2023-07-25T01:30:02.406Z,65.40
2023-07-25T01:32:31.459Z,65.40
2023-07-25T01:34:59.676Z,65.40
2023-07-25T01:37:28.096Z,65.40
2023-07-25T01:39:56.580Z,65.40
2023-07-25T01:42:26.124Z,65.40
2023-07-25T01:44:54.278Z,65.40
2023-07-25T01:47:26.569Z,65.40
2023-07-25T01:49:55.156Z,65.40
2023-07-25T01:52:23.628Z,65.40
2023-07-25T01:54:54.020Z,65.40
2023-07-25T01:57:22.222Z,65.40
2023-07-25T01:59:52.832Z,65.40
2023-07-25T02:02:23.534Z,65.40
2023-07-25T02:04:51.805Z,65.40
2023-07-25T02:07:19.982Z,65.40
2023-07-25T02:09:48.409Z,65.40
2023-07-25T02:12:16.723Z,65.40
2023-07-25T02:14:44.851Z,65.40
2023-07-25T02:17:14.443Z,65.40
2023-07-25T02:19:42.671Z,65.40
2023-07-25T02:22:10.893Z,65.40
2023-07-25T02:24:39.099Z,65.40
2023-07-25T02:27:07.577Z,65.40
2023-07-25T02:29:35.780Z,65.30
2023-07-25T02:32:03.964Z,65.40
2023-07-25T02:34:33.583Z,65.30
2023-07-25T02:37:01.787Z,65.30
2023-07-25T02:39:32.615Z,65.40
2023-07-25T02:42:00.786Z,65.40
2023-07-25T02:44:28.930Z,65.30
2023-07-25T02:46:57.092Z,65.30
2023-07-25T02:49:27.356Z,65.40
2023-07-25T02:51:56.947Z,65.40
2023-07-25T02:54:25.120Z,65.30
2023-07-25T02:56:53.292Z,65.30
2023-07-25T02:59:21.493Z,65.30
2023-07-25T03:01:49.742Z,65.30
2023-07-25T03:04:17.968Z,65.30
2023-07-25T03:06:46.068Z,65.30
2023-07-25T03:09:15.841Z,65.30
2023-07-25T03:11:44.012Z,65.30
2023-07-25T03:14:12.289Z,65.30
2023-07-25T03:16:40.605Z,65.30
2023-07-25T03:19:08.846Z,65.30
2023-07-25T03:21:36.993Z,65.30
2023-07-25T03:24:05.697Z,65.30
2023-07-25T03:26:35.275Z,65.30
2023-07-25T03:29:03.475Z,65.30
2023-07-25T03:31:31.928Z,65.30
2023-07-25T03:34:00.493Z,65.30
2023-07-25T03:36:28.609Z,65.30
2023-07-25T03:38:56.775Z,65.30
2023-07-25T03:41:24.913Z,65.30
2023-07-25T03:43:54.425Z,65.20
2023-07-25T03:46:22.681Z,65.30
2023-07-25T03:48:50.890Z,65.30
2023-07-25T03:51:19.268Z,65.20
2023-07-25T03:53:47.436Z,65.30
2023-07-25T03:56:15.594Z,65.20
2023-07-25T03:58:43.821Z,65.20
2023-07-25T04:01:13.369Z,65.20
2023-07-25T04:03:41.669Z,65.20
2023-07-25T04:06:10.046Z,65.20
2023-07-25T04:08:38.235Z,65.20
2023-07-25T04:11:06.479Z,65.30
2023-07-25T04:13:34.740Z,65.20
2023-07-25T04:16:03.146Z,65.20
2023-07-25T04:18:32.748Z,65.20
2023-07-25T04:21:00.893Z,65.20
2023-07-25T04:23:29.083Z,65.20
2023-07-25T04:25:57.235Z,65.20
2023-07-25T04:28:25.489Z,65.20
2023-07-25T04:30:53.644Z,65.20
2023-07-25T04:33:21.783Z,65.20
2023-07-25T04:35:51.410Z,65.20
2023-07-25T04:38:19.594Z,65.20
2023-07-25T04:40:47.779Z,65.20
2023-07-25T04:43:15.917Z,65.20
2023-07-25T04:45:45.718Z,65.20
2023-07-25T04:48:16.805Z,65.20
2023-07-25T04:50:45.102Z,65.20
2023-07-25T04:53:14.716Z,65.20
2023-07-25T04:55:42.975Z,65.20
2023-07-25T04:58:11.530Z,65.20
2023-07-25T05:00:39.732Z,65.20
2023-07-25T05:03:07.978Z,65.20
2023-07-25T05:05:36.167Z,65.10
2023-07-25T05:08:04.472Z,65.10
2023-07-25T05:10:36.414Z,65.10
2023-07-25T05:13:04.578Z,65.10
2023-07-25T05:15:32.740Z,65.10
2023-07-25T05:18:00.964Z,65.10
2023-07-25T05:20:29.188Z,65.10
2023-07-25T05:22:57.565Z,65.10
2023-07-25T05:25:25.730Z,65.20
2023-07-25T05:27:55.254Z,65.30
2023-07-25T05:30:23.411Z,65.30
2023-07-25T05:32:51.680Z,65.30
2023-07-25T05:35:19.975Z,65.30
2023-07-25T05:37:48.153Z,65.30
2023-07-25T05:40:16.355Z,65.30
2023-07-25T05:42:44.537Z,65.40
2023-07-25T05:45:14.245Z,65.40
2023-07-25T05:47:42.540Z,65.40
2023-07-25T05:50:11.582Z,65.40
2023-07-25T05:52:39.796Z,65.40
2023-07-25T05:55:08.845Z,65.40
2023-07-25T05:57:37.031Z,65.30
2023-07-25T06:00:07.025Z,65.30
2023-07-25T06:02:36.968Z,65.40
2023-07-25T06:05:05.636Z,65.40
2023-07-25T06:07:33.871Z,65.40
2023-07-25T06:10:02.104Z,65.30
2023-07-25T06:12:31.082Z,65.40
2023-07-25T06:14:59.408Z,65.50
2023-07-25T06:17:27.587Z,65.60
2023-07-25T06:19:57.160Z,65.80
2023-07-25T06:22:25.365Z,65.80
2023-07-25T06:24:53.675Z,65.60
2023-07-25T06:27:22.678Z,65.50
2023-07-25T06:29:51.833Z,65.50
2023-07-25T06:32:20.138Z,65.80
2023-07-25T06:34:50.763Z,65.60
2023-07-25T06:37:20.739Z,65.60
2023-07-25T06:39:48.938Z,65.60
2023-07-25T06:42:17.127Z,65.70
2023-07-25T06:44:48.419Z,65.60
2023-07-25T06:47:16.604Z,65.70
2023-07-25T06:49:44.797Z,65.70
2023-07-25T06:52:12.965Z,66.00
2023-07-25T06:54:42.836Z,65.70
2023-07-25T06:57:11.103Z,65.70
2023-07-25T06:59:39.267Z,65.60
2023-07-25T07:02:08.422Z,65.30
2023-07-25T07:04:36.630Z,64.90
2023-07-25T07:07:05.235Z,64.80
2023-07-25T07:09:34.997Z,65.00
2023-07-25T07:12:05.199Z,65.10
2023-07-25T07:14:33.378Z,65.20
2023-07-25T07:17:01.606Z,65.30
2023-07-25T07:19:29.817Z,65.30
2023-07-25T07:21:58.062Z,65.60
2023-07-25T07:24:26.259Z,65.80
2023-07-25T07:26:54.462Z,65.90
2023-07-25T07:29:24.028Z,65.70
2023-07-25T07:31:52.219Z,66.00
2023-07-25T07:34:20.684Z,65.90
2023-07-25T07:36:48.834Z,66.00
2023-07-25T07:39:17.018Z,66.00
2023-07-25T07:41:45.168Z,66.30
2023-07-25T07:44:13.436Z,66.30
2023-07-25T07:46:43.035Z,66.20
2023-07-25T07:49:11.232Z,66.10
2023-07-25T07:51:39.414Z,66.20
2023-07-25T07:54:07.626Z,66.20
2023-07-25T07:56:35.758Z,66.00
2023-07-25T07:59:03.957Z,65.90
2023-07-25T08:01:32.856Z,65.90
2023-07-25T08:04:02.811Z,65.90
2023-07-25T08:06:32.076Z,65.70
2023-07-25T08:09:00.294Z,65.90
2023-07-25T08:11:28.446Z,65.70
2023-07-25T08:13:59.724Z,65.70
2023-07-25T08:16:27.955Z,65.70
2023-07-25T08:18:56.221Z,65.90
2023-07-25T08:21:25.824Z,65.70
2023-07-25T08:23:54.002Z,65.70
2023-07-25T08:26:22.300Z,65.60
2023-07-25T08:28:50.453Z,65.50
2023-07-25T08:31:18.666Z,65.50
2023-07-25T08:33:46.872Z,65.50
2023-07-25T08:36:15.071Z,65.40
2023-07-25T08:38:44.581Z,65.50
2023-07-25T08:41:17.935Z,65.30
2023-07-25T08:43:46.525Z,65.40
2023-07-25T08:46:16.397Z,65.60
2023-07-25T08:48:44.826Z,65.50
2023-07-25T08:51:18.826Z,65.60
2023-07-25T08:53:58.306Z,65.50
2023-07-25T08:56:26.837Z,65.40
2023-07-25T08:58:56.297Z,65.50
2023-07-25T09:01:24.785Z,65.50
2023-07-25T09:03:55.240Z,65.60
2023-07-25T09:06:23.710Z,65.70
2023-07-25T09:08:53.249Z,65.70
2023-07-25T09:11:22.717Z,65.60
2023-07-25T09:13:51.305Z,65.50
2023-07-25T09:16:19.630Z,65.60
2023-07-25T09:18:47.796Z,65.60
2023-07-25T09:21:17.824Z,65.50
2023-07-25T09:23:53.848Z,65.50
2023-07-25T09:26:24.617Z,65.50
2023-07-25T09:28:56.611Z,65.50
2023-07-25T09:31:28.711Z,65.70
2023-07-25T09:33:58.151Z,65.60
2023-07-25T09:36:31.659Z,65.50
2023-07-25T09:39:02.533Z,65.50
2023-07-25T09:41:30.992Z,65.40
2023-07-25T09:44:06.310Z,65.50
2023-07-25T09:46:34.721Z,65.50
2023-07-25T09:49:03.568Z,65.40
2023-07-25T09:51:32.749Z,65.40
2023-07-25T09:54:06.887Z,65.40
2023-07-25T09:56:37.197Z,65.40
2023-07-25T09:59:07.853Z,65.40
2023-07-25T10:01:38.920Z,65.30
2023-07-25T10:04:07.871Z,65.30
2023-07-25T10:06:37.755Z,65.30
2023-07-25T10:09:08.221Z,65.20
2023-07-25T10:11:37.610Z,65.20
2023-07-25T10:14:06.670Z,65.10
2023-07-25T10:16:38.068Z,65.00
2023-07-25T10:19:07.863Z,64.90
2023-07-25T10:21:50.186Z,64.90
2023-07-25T10:24:22.854Z,64.90
2023-07-25T10:26:55.467Z,64.70
2023-07-25T10:29:42.695Z,64.70
2023-07-25T10:32:13.865Z,64.60
2023-07-25T10:34:47.875Z,64.50
2023-07-25T10:37:23.986Z,64.40
2023-07-25T10:40:12.581Z,64.30
2023-07-25T10:42:59.913Z,64.20
2023-07-25T10:45:53.073Z,64.20
2023-07-25T10:48:38.174Z,64.10
2023-07-25T10:51:08.917Z,64.10
2023-07-25T10:53:37.786Z,64.10
2023-07-25T10:56:19.170Z,64.00
2023-07-25T10:59:05.083Z,64.00
2023-07-25T11:01:44.289Z,63.90
2023-07-25T11:04:27.000Z,63.90
2023-07-25T11:06:56.341Z,63.80
2023-07-25T11:09:25.657Z,63.90
2023-07-25T11:11:57.006Z,63.80
2023-07-25T11:14:25.359Z,63.90
2023-07-25T11:16:54.960Z,64.00
2023-07-25T11:19:29.793Z,64.00
2023-07-25T11:21:58.399Z,64.00
2023-07-25T11:24:27.112Z,64.00
2023-07-25T11:26:56.793Z,63.90
2023-07-25T11:29:24.981Z,63.90
2023-07-25T11:31:53.204Z,63.90
2023-07-25T11:34:22.528Z,63.90
2023-07-25T11:36:50.744Z,63.90
2023-07-25T11:39:20.526Z,63.80
2023-07-25T11:41:49.140Z,64.40
2023-07-25T11:44:21.303Z,64.60
2023-07-25T11:46:52.943Z,64.80
2023-07-25T11:49:40.293Z,64.80
2023-07-25T11:52:11.854Z,64.70
2023-07-25T11:54:40.817Z,64.70
2023-07-25T11:57:12.122Z,64.60
2023-07-25T11:59:43.893Z,64.30
2023-07-25T12:02:14.690Z,64.00
2023-07-25T12:04:46.707Z,63.80
2023-07-25T12:07:15.285Z,63.50
2023-07-25T12:09:52.599Z,63.20
2023-07-25T12:12:21.446Z,63.00
2023-07-25T12:14:58.544Z,62.90
2023-07-25T12:17:44.693Z,62.60
2023-07-25T12:20:17.620Z,62.50
2023-07-25T12:22:46.085Z,62.60
2023-07-25T12:25:18.823Z,62.60
2023-07-25T12:27:48.452Z,62.60
2023-07-25T12:30:18.645Z,62.70
2023-07-25T12:32:46.937Z,62.80
2023-07-25T12:35:15.240Z,63.30
2023-07-25T12:37:43.392Z,63.60
2023-07-25T12:40:12.297Z,63.40
2023-07-25T12:42:40.529Z,63.60
2023-07-25T12:45:11.342Z,63.40
2023-07-25T12:47:41.326Z,63.20
2023-07-25T12:50:10.915Z,63.20
2023-07-25T12:52:39.412Z,63.10
2023-07-25T12:55:09.304Z,63.20
2023-07-25T12:57:38.368Z,63.10
2023-07-25T13:00:08.735Z,63.20
2023-07-25T13:02:37.884Z,63.20
2023-07-25T13:05:09.246Z,63.10
2023-07-25T13:07:37.659Z,63.10
2023-07-25T13:10:07.557Z,63.10
2023-07-25T13:12:36.432Z,63.20
2023-07-25T13:15:05.104Z,63.20
2023-07-25T13:17:33.416Z,63.00
2023-07-25T13:20:03.090Z,62.90
2023-07-25T13:22:32.720Z,62.60
2023-07-25T13:25:00.877Z,62.40
2023-07-25T13:27:29.419Z,62.20
2023-07-25T13:29:58.461Z,62.10
2023-07-25T13:32:26.794Z,61.70
2023-07-25T13:34:55.038Z,61.60
2023-07-25T13:37:23.396Z,61.40
2023-07-25T13:39:53.043Z,61.50
2023-07-25T13:42:23.591Z,61.70
2023-07-25T13:44:51.997Z,62.00
2023-07-25T13:47:20.269Z,62.20
2023-07-25T13:49:48.820Z,62.10
2023-07-25T13:52:17.043Z,62.00
2023-07-25T13:54:45.496Z,61.90
2023-07-25T13:57:15.258Z,61.70
2023-07-25T13:59:43.495Z,61.50
2023-07-25T14:02:11.791Z,61.30
2023-07-25T14:04:40.540Z,61.20
2023-07-25T14:07:09.436Z,61.10
2023-07-25T14:09:37.616Z,60.50
2023-07-25T14:12:06.985Z,60.10
2023-07-25T14:14:36.928Z,59.90
2023-07-25T14:17:06.925Z,59.60
2023-07-25T14:19:35.208Z,59.30
2023-07-25T14:22:03.358Z,59.60
2023-07-25T14:24:32.366Z,59.40
2023-07-25T14:27:00.496Z,59.70
2023-07-25T14:29:28.692Z,59.70
2023-07-25T14:31:59.361Z,60.10
2023-07-25T14:34:27.608Z,60.50
2023-07-25T14:36:55.751Z,60.70
2023-07-25T14:39:23.984Z,60.80
2023-07-25T14:41:52.151Z,60.90
2023-07-25T14:44:20.292Z,61.20
2023-07-25T14:46:48.512Z,61.30
2023-07-25T14:49:18.230Z,61.30
2023-07-25T14:51:46.462Z,61.30
2023-07-25T14:54:14.678Z,61.30
2023-07-25T14:56:43.154Z,61.30
2023-07-25T14:59:12.929Z,61.30
2023-07-25T15:01:41.257Z,61.50
2023-07-25T15:04:09.443Z,61.40
2023-07-25T15:06:38.947Z,61.40
2023-07-25T15:09:07.142Z,61.50
2023-07-25T15:11:35.709Z,61.60
2023-07-25T15:14:03.953Z,61.70
2023-07-25T15:16:32.909Z,61.70
2023-07-25T15:19:01.506Z,61.60
2023-07-25T15:21:29.820Z,61.50
2023-07-25T15:23:59.676Z,61.50
2023-07-25T15:26:27.902Z,61.50
2023-07-25T15:28:56.088Z,61.50
2023-07-25T15:31:24.347Z,61.40
2023-07-25T15:33:52.592Z,61.10
2023-07-25T15:36:20.782Z,61.00
2023-07-25T15:38:49.195Z,61.00
2023-07-25T15:41:18.737Z,60.90
2023-07-25T15:43:47.049Z,60.80
2023-07-25T15:46:15.256Z,60.80
2023-07-25T15:48:44.001Z,60.70
2023-07-25T15:51:13.441Z,60.70
2023-07-25T15:53:41.682Z,60.70
2023-07-25T15:56:09.949Z,60.80
2023-07-25T15:58:39.522Z,60.70
2023-07-25T16:01:08.312Z,60.80
2023-07-25T16:03:36.826Z,60.90
2023-07-25T16:06:05.151Z,60.80
2023-07-25T16:08:33.539Z,60.90
2023-07-25T16:11:02.048Z,60.80
2023-07-25T16:13:30.248Z,60.70
2023-07-25T16:15:59.965Z,60.60
2023-07-25T16:18:28.193Z,60.60
2023-07-25T16:20:56.596Z,60.90
2023-07-25T16:23:24.730Z,60.90
2023-07-25T16:25:56.288Z,61.00
2023-07-25T16:28:24.677Z,60.70
2023-07-25T16:30:55.773Z,60.80
2023-07-25T16:33:32.524Z,60.90
2023-07-25T16:36:00.713Z,60.80
2023-07-25T16:38:34.481Z,60.60
2023-07-25T16:41:03.044Z,60.70
2023-07-25T16:43:31.230Z,60.80
2023-07-25T16:45:59.580Z,60.80
2023-07-25T16:48:27.860Z,60.80
2023-07-25T16:50:57.575Z,60.80
2023-07-25T16:53:26.906Z,60.90
2023-07-25T16:55:55.249Z,60.90
2023-07-25T16:58:23.382Z,61.00
2023-07-25T17:00:52.306Z,61.40
2023-07-25T17:03:20.959Z,61.50
2023-07-25T17:05:49.216Z,61.60
2023-07-25T17:08:18.766Z,61.60
2023-07-25T17:10:46.952Z,61.60
2023-07-25T17:13:16.096Z,61.80
2023-07-25T17:15:45.122Z,61.80
2023-07-25T17:18:13.354Z,61.90
2023-07-25T17:20:41.620Z,61.90
2023-07-25T17:23:09.918Z,62.20
2023-07-25T17:25:39.756Z,61.90
2023-07-25T17:28:07.951Z,61.80
2023-07-25T17:30:36.140Z,61.90
2023-07-25T17:33:04.455Z,61.90
2023-07-25T17:35:37.829Z,61.90
2023-07-25T17:38:06.622Z,62.20
2023-07-25T17:40:34.815Z,62.20
2023-07-25T17:43:04.673Z,62.20
2023-07-25T17:45:32.896Z,62.10
2023-07-25T17:48:01.088Z,62.20
2023-07-25T17:50:29.353Z,62.30
2023-07-25T17:52:57.545Z,62.30
2023-07-25T17:55:25.705Z,62.50
2023-07-25T17:57:54.053Z,62.50
2023-07-25T18:00:23.655Z,62.50
2023-07-25T18:02:51.935Z,62.50
2023-07-25T18:05:21.735Z,62.60
2023-07-25T18:07:50.002Z,62.60
2023-07-25T18:10:18.352Z,62.70
2023-07-25T18:12:46.567Z,62.80
2023-07-25T18:15:14.759Z,62.90
2023-07-25T18:17:44.717Z,62.80
2023-07-25T18:20:13.523Z,62.90
2023-07-25T18:22:41.693Z,63.20
2023-07-25T18:25:10.890Z,62.90
2023-07-25T18:27:39.903Z,62.80
2023-07-25T18:30:09.577Z,62.90
2023-07-25T18:32:37.907Z,62.90
2023-07-25T18:35:09.027Z,62.90
2023-07-25T18:37:37.285Z,63.10
2023-07-25T18:40:06.379Z,63.10
2023-07-25T18:42:34.647Z,63.20
2023-07-25T18:45:02.952Z,63.30
2023-07-25T18:47:35.014Z,63.30
2023-07-25T18:50:04.197Z,63.40
2023-07-25T18:52:33.862Z,63.50
2023-07-25T18:55:02.054Z,63.60
2023-07-25T18:57:30.311Z,63.70
2023-07-25T18:59:58.577Z,63.90
2023-07-25T19:02:26.830Z,63.80
2023-07-25T19:04:55.216Z,63.70
2023-07-25T19:07:23.465Z,63.70
2023-07-25T19:09:53.057Z,63.70
2023-07-25T19:12:21.242Z,63.80
2023-07-25T19:14:49.475Z,63.90
2023-07-25T19:17:17.612Z,63.90
2023-07-25T19:19:45.848Z,64.10
2023-07-25T19:22:14.014Z,64.00
2023-07-25T19:24:42.430Z,64.20
2023-07-25T19:27:11.997Z,64.40
2023-07-25T19:29:40.212Z,64.40
2023-07-25T19:32:09.551Z,64.40
2023-07-25T19:34:37.739Z,64.50
2023-07-25T19:37:06.235Z,64.60
2023-07-25T19:39:34.878Z,64.60
2023-07-25T19:42:03.224Z,64.70
2023-07-25T19:44:32.839Z,64.60
2023-07-25T19:47:01.068Z,64.80
2023-07-25T19:49:29.248Z,64.80
2023-07-25T19:51:57.586Z,64.60
2023-07-25T19:54:25.776Z,64.40
2023-07-25T19:56:53.999Z,64.30
2023-07-25T19:59:22.208Z,64.00
2023-07-25T20:01:51.785Z,64.00
2023-07-25T20:04:20.103Z,64.10
2023-07-25T20:06:48.339Z,64.10
2023-07-25T20:09:16.505Z,64.00
2023-07-25T20:11:44.791Z,64.00
2023-07-25T20:14:12.929Z,64.00
2023-07-25T20:16:41.193Z,64.00
2023-07-25T20:19:10.905Z,63.90
2023-07-25T20:21:39.078Z,63.90
2023-07-25T20:24:12.452Z,64.00
2023-07-25T20:26:41.580Z,64.00
2023-07-25T20:29:09.827Z,64.20
2023-07-25T20:31:38.037Z,64.10
2023-07-25T20:34:06.301Z,64.40
2023-07-25T20:36:35.839Z,64.50
2023-07-25T20:39:04.062Z,64.60
2023-07-25T20:41:32.266Z,64.60
2023-07-25T20:44:00.431Z,64.60
2023-07-25T20:46:28.698Z,64.70
2023-07-25T20:48:56.905Z,64.80
2023-07-25T20:51:25.201Z,64.90
2023-07-25T20:53:54.705Z,65.00
2023-07-25T20:56:23.151Z,65.00
2023-07-25T20:58:51.320Z,65.10
2023-07-25T21:01:19.499Z,64.90
2023-07-25T21:03:47.730Z,64.80
2023-07-25T21:06:16.577Z,64.80
2023-07-25T21:08:44.747Z,64.70
2023-07-25T21:11:14.334Z,64.70
2023-07-25T21:13:42.528Z,64.70
2023-07-25T21:16:10.767Z,64.60
2023-07-25T21:18:39.130Z,64.50
2023-07-25T21:21:07.871Z,64.40
2023-07-25T21:23:37.080Z,64.30
2023-07-25T21:26:05.910Z,64.20
2023-07-25T21:28:35.881Z,64.20
2023-07-25T21:31:10.017Z,65.80
2023-07-25T21:33:38.520Z,65.40
2023-07-25T21:36:12.799Z,64.70
2023-07-25T21:38:43.013Z,64.70
2023-07-25T21:41:14.377Z,64.60
2023-07-25T21:43:46.224Z,64.60
2023-07-25T21:46:15.227Z,64.70
2023-07-25T21:48:44.170Z,64.70
2023-07-25T21:51:13.074Z,64.70
2023-07-25T21:53:43.535Z,64.70
2023-07-25T21:56:12.489Z,64.70
2023-07-25T21:58:41.605Z,64.70
2023-07-25T22:01:13.251Z,64.70
2023-07-25T22:03:41.536Z,64.60
2023-07-25T22:06:09.752Z,64.40
2023-07-25T22:08:37.968Z,64.40
2023-07-25T22:11:06.233Z,64.20
2023-07-25T22:13:34.539Z,64.20
2023-07-25T22:16:02.772Z,64.20
2023-07-25T22:18:32.336Z,64.20
2023-07-25T22:21:00.785Z,64.20
2023-07-25T22:23:28.971Z,64.10
2023-07-25T22:26:03.539Z,64.00
2023-07-25T22:28:31.917Z,63.90
2023-07-25T22:31:01.724Z,63.90
2023-07-25T22:33:29.947Z,63.80
2023-07-25T22:35:59.489Z,63.80
2023-07-25T22:38:27.750Z,63.70
2023-07-25T22:40:55.876Z,63.70
2023-07-25T22:43:24.000Z,63.60
2023-07-25T22:45:52.259Z,63.60
2023-07-25T22:48:20.422Z,63.60
2023-07-25T22:50:51.130Z,63.50
2023-07-25T22:53:20.693Z,63.50
2023-07-25T22:55:48.885Z,63.50
2023-07-25T22:58:17.113Z,63.50
2023-07-25T23:00:47.234Z,63.40
2023-07-25T23:03:15.653Z,63.40
2023-07-25T23:05:43.923Z,63.40
2023-07-25T23:08:12.260Z,63.40
2023-07-25T23:10:42.182Z,63.40
2023-07-25T23:13:10.317Z,63.30
2023-07-25T23:15:43.258Z,63.30
2023-07-25T23:18:11.410Z,63.30
2023-07-25T23:20:39.586Z,63.40
2023-07-25T23:23:07.762Z,63.30
2023-07-25T23:25:35.914Z,63.30
2023-07-25T23:28:06.706Z,63.30
2023-07-25T23:30:34.937Z,63.30
2023-07-25T23:33:03.149Z,63.30
2023-07-25T23:35:31.336Z,63.20
2023-07-25T23:37:59.540Z,63.20
2023-07-25T23:40:27.695Z,63.20
2023-07-25T23:42:55.878Z,63.20
2023-07-25T23:45:25.456Z,63.20
2023-07-25T23:47:53.634Z,63.20
2023-07-25T23:50:21.811Z,63.20
2023-07-25T23:52:50.011Z,63.10
2023-07-25T23:55:18.289Z,63.10
2023-07-25T23:57:46.773Z,63.10
